Roth, North Dakota
Current Conditions -  °F | °C
As of 7:58 AM on Thursday 23 Oct 2014 (Local Time) from KMIB Reporting Station
Clear Clear  
Wind Chill: 35°   Ceiling: Unl
Heat Index: 40°   Visibility: 10mi
Dew Point: 33°   Wind: 7mph
Humidity: 78%   Direction: 220°SW
Pressure: 29.82"   Gusts: NA
Location:  48.9505°N, 100.734°W
Report Text: KMIB 231258Z AUTO 22006KT 10SM CLR 04/01 A2982 RMK AO2 SLP111 T00430008 $
Loading
Personal Weather Stations






























Interactive Weather Map
Tropical Storm Tracking
New forecast layout! Learn more

10-Day Weather Forecast

Advertisements
Track Severe Weather on mobile